Lagrange, Wyoming
Current Conditions -  °F | °C
As of 3:35 PM on Monday 22 Dec 2014 (Local Time) from K82V Reporting Station
Clear Clear  
Wind Chill: 22°   Ceiling: Unl
Heat Index: 32°   Visibility: 10mi
Dew Point: 27°   Wind: 15mph
Humidity: 80%   Direction: 330°NNW
Pressure: 29.68"   Gusts: 21mph
Location:  41.63°N, 104.35°W
Report Text: K82V 222235Z AUTO 33013G18KT 10SM CLR 00/M03 A2968 RMK AO2
Loading
Personal Weather Stations






























Interactive Weather Map New forecast layout! Learn more

10-Day Weather Forecast

Advertisements
Track Severe Weather on mobile